Latest Coastal Weather Observations for Mackay

IDQ60701

Issued at 5:21 am EST Monday 2 May 2016 (issued every 10 minutes, with the page automatically refreshed every 10 minutes)

About coastal observations | Map of coastal stations | Coastal observations for QLD | Marine services | Other Formats
Station Details ID: 033119 Name: MACKAY M.O Lat: -21.12 Lon: 149.22 Height: 30.26 m
Data from the previous 72 hours. | See also: Recent months at Mackay
Date/Time
EST
Temp

°C
Wind Pressure Rain
since 9am
mm
Weather Cloud Vis
km
Sea
Height
m
Swell
Dir
 
Speed
knots
Gust
knots
hPa Trend Height
m
Period
s
Dir
02/05:00am 22.8 SW 4 6 1014.3 - 0.0 - Cloudy - - - - -
02/04:30am 22.9 SW 5 7 1014.1 - 0.0 - Cloudy - - - - -
02/04:00am 22.7 SW 5 6 1014.0 - 0.0 - Cloudy - - - - -
02/03:30am 22.7 WSW 4 5 1013.8 - 0.0 - Cloudy - - - - -
02/03:00am 22.9 SW 5 6 1013.9 - 0.0 - Cloudy - - - - -
02/02:30am 23.1 SW 5 6 1014.1 - 0.0 - Partly cloudy - - - - -
02/02:12am 23.2 SW 5 5 1014.3 - 0.0 - Partly cloudy - - - - -
02/02:00am 23.2 WSW 5 5 1014.4 - 0.0 - Partly cloudy - - - - -
02/01:30am 23.4 WSW 4 6 1014.6 - 0.0 - Partly cloudy - - - - -
02/01:00am 23.5 SW 5 6 1015.0 - 0.0 - Partly cloudy - - - - -
02/12:30am 23.6 WSW 4 5 1015.4 - 0.0 - Partly cloudy - - - - -
02/12:00am 24.0 W 3 5 1015.7 - 0.0 - Mostly clear - - - - -
 
Date/Time
EST
Temp

°C
Wind Pressure Rain
since 9am
mm
Weather Cloud Vis
km
Sea
Height
m
Swell
Dir
 
Speed
knots
Gust
knots
hPa Trend Height
m
Period
s
Dir
01/11:42pm 24.2 CALM 0 0 1015.9 - 0.0 - Partly cloudy - - - - -
01/11:30pm 24.2 SW 2 4 1016.0 - 0.0 - Partly cloudy - - - - -
01/11:00pm 24.6 WSW 4 4 1016.4 - 0.0 - Partly cloudy - - - - -
01/10:55pm 24.7 SW 3 4 1016.4 - 0.0 - Partly cloudy - - - - -
01/10:30pm 25.2 E 3 4 1016.5 - 0.0 - Partly cloudy - - - - -
01/10:00pm 24.9 ENE 3 4 1016.4 - 0.0 - Partly cloudy - - - - -
01/09:30pm 24.9 ENE 3 5 1016.5 - 0.0 - Partly cloudy - - - - -
01/09:00pm 25.1 ENE 4 6 1016.7 S 0.0 - Mostly clear - - - - -
01/08:36pm 25.3 E 5 6 1016.6 - 0.0 - Partly cloudy - - - - -
01/08:30pm 25.2 ENE 4 6 1016.6 - 0.0 - Partly cloudy - - - - -
01/08:00pm 25.6 E 5 7 1016.5 - 0.0 - Partly cloudy - - - - -
01/07:30pm 25.6 E 5 8 1016.3 - 0.0 - Partly cloudy - - - - -
01/07:18pm 25.6 E 5 7 1016.1 - 0.0 - Partly cloudy - - - - -
01/07:00pm 25.5 E 6 8 1015.8 - 0.0 - Partly cloudy - - - - -
01/06:30pm 25.5 E 6 8 1015.4 - 0.0 - Cloudy - - - - -
01/06:00pm 25.4 ENE 5 7 1015.1 R 0.0 - Mostly cloudy - - - - -
01/05:30pm 25.6 ENE 4 7 1014.9 - 0.0 - Partly cloudy - - - - -
01/05:00pm 26.0 NE 4 8 1014.6 - 0.0 - Partly cloudy - - - - -
01/04:30pm 26.4 ENE 6 9 1014.4 - 0.0 - - - - - - -
01/04:00pm 27.2 ENE 6 10 1014.3 - 0.0 - - - - - - -
01/03:30pm 27.6 ENE 6 10 1014.2 - 0.0 - - - - - - -
01/03:00pm 27.5 ENE 7 9 1014.2 R 0.0 - - - - - - -
01/02:30pm 27.7 ENE 7 11 1014.1 - 0.0 - - - - - - -
01/02:00pm 27.0 E 7 10 1014.2 - 0.0 - - - - - - -
01/01:30pm 26.9 E 6 8 1014.4 - 0.0 - - - - - - -
01/01:00pm 26.8 E 6 8 1014.9 - 0.0 - - - - - - -
01/12:30pm 26.4 E 6 9 1015.5 - 0.0 - - - - - - -
01/12:00pm 26.5 ESE 5 8 1015.9 F 0.0 - - - - - - -
01/11:30am 26.6 ESE 5 8 1016.3 - 0.0 - - - - - - -
01/11:00am 26.4 SE 5 8 1016.9 - 0.0 - - - - - - -
01/10:30am 26.4 SE 4 6 1017.1 - 0.0 - - - - - - -
01/10:00am 26.5 SSE 6 8 1017.2 - 0.0 - - - - - - -
01/09:51am 26.8 SSE 5 8 1017.4 - 0.0 - Partly cloudy - - - - -
01/09:30am 26.6 SSE 5 7 1017.7 - 0.0 - Partly cloudy - - - - -
01/09:01am 25.6 SSW 4 7 1017.6 - 0.0 - Partly cloudy - - - - -
01/09:00am 25.9 SSW 4 7 1017.6 F 0.0 - Cloudy - - - - -
01/08:30am 24.7 SSW 5 7 1017.6 - 0.0 - Partly cloudy - - - - -
01/08:00am 24.0 SW 5 7 1017.5 - 0.0 - - - - - - -
01/07:30am 22.8 WSW 5 7 1017.6 - 0.0 - Partly cloudy - - - - -
01/07:26am 22.7 SW 5 6 1017.6 - 0.0 - Partly cloudy - - - - -
01/07:00am 22.3 SW 5 7 1017.3 - 0.0 - Partly cloudy - - - - -
01/06:59am 22.3 SW 6 7 1017.3 - 0.0 - Partly cloudy - - - - -
01/06:30am 22.1 SW 6 7 1017.0 - 0.0 - Partly cloudy - - - - -
01/06:00am 22.1 SW 6 8 1016.8 R 0.0 - Mostly clear - - - - -
01/05:30am 22.0 SW 6 7 1016.4 - 0.0 - - - - - - -
01/05:12am 22.1 SW 5 6 1016.4 - 0.0 - Partly cloudy - - - - -
01/05:00am 22.2 SW 5 7 1016.4 - 0.0 - Partly cloudy - - - - -
01/04:30am 22.3 SW 3 6 1016.2 - 0.0 - Partly cloudy - - - - -
01/04:00am 22.4 SW 4 6 1016.0 - 0.0 - Partly cloudy - - - - -
01/03:30am 22.5 NW 3 6 1016.0 - 0.0 - Partly cloudy - - - - -
01/03:17am 22.5 W 4 7 1016.0 - 0.0 - Partly cloudy - - - - -
01/03:00am 22.4 WSW 5 6 1015.9 - 0.0 - Partly cloudy - - - - -
01/02:30am 22.6 SW 5 6 1016.2 - 0.0 - Partly cloudy - - - - -
01/02:19am 22.7 SW 5 6 1016.2 - 0.0 - Partly cloudy - - - - -
01/02:00am 22.9 SW 4 6 1016.5 - 0.0 - Partly cloudy - - - - -
01/01:30am 23.5 SW 5 6 1016.7 - 0.0 - Cloudy - - - - -
01/01:00am 24.2 SSE 4 6 1016.8 - 0.0 - Partly cloudy - - - - -
01/12:30am 24.3 SSE 5 7 1016.9 - 0.0 - Partly cloudy - - - - -
01/12:00am 24.6 SE 5 7 1017.0 - 0.0 - Mostly cloudy - - - - -
 
Date/Time
EST
Temp

°C
Wind Pressure Rain
since 9am
mm
Weather Cloud Vis
km
Sea
Height
m
Swell
Dir
 
Speed
knots
Gust
knots
hPa Trend Height
m
Period
s
Dir
30/11:46pm 24.7 SE 5 7 1017.1 - 0.0 - Partly cloudy - - - - -
30/11:37pm 24.6 SE 5 8 1017.1 - 0.0 - Partly cloudy - - - - -
30/11:30pm 24.6 SE 5 8 1017.2 - 0.0 - Partly cloudy - - - - -
30/11:15pm 24.6 SE 6 8 1017.3 - 0.0 - Partly cloudy - - - - -
30/11:00pm 24.6 SE 5 8 1017.2 - 0.0 - Partly cloudy - - - - -
30/10:42pm 24.5 SSE 6 9 1017.3 - 0.0 - Partly cloudy - - - - -
30/10:30pm 24.5 SSE 6 9 1017.3 - 0.0 - Partly cloudy - - - - -
30/10:00pm 24.8 SE 5 7 1017.4 - 0.0 - Partly cloudy - - - - -
30/09:30pm 24.9 SE 5 8 1017.5 - 0.0 - Partly cloudy - - - - -
30/09:00pm 25.0 ESE 5 9 1017.4 F 0.0 - Cloudy - - - - -
30/08:30pm 25.0 SE 6 9 1017.3 - 0.0 - Partly cloudy - - - - -
30/08:19pm 24.9 SE 5 8 1017.2 - 0.0 - Partly cloudy - - - - -
30/08:00pm 24.9 ESE 5 9 1017.0 - 0.0 - Partly cloudy - - - - -
30/07:30pm 25.0 ESE 5 9 1016.6 - 0.0 - Partly cloudy - - - - -
30/07:00pm 25.0 ESE 5 9 1016.3 - 0.0 - Partly cloudy - - - - -
30/06:50pm 25.0 ESE 5 9 1016.1 - 0.0 - Partly cloudy - - - - -
30/06:31pm 24.9 SE 6 9 1016.1 - 0.0 - Partly cloudy - - - - -
30/06:30pm 24.9 SE 6 9 1016.0 - 0.0 - Partly cloudy - - - - -
30/06:28pm 24.9 SE 6 9 1016.0 - 0.0 - Partly cloudy - - - - -
30/06:12pm 24.9 SE 6 10 1016.0 - 0.0 - Partly cloudy - - - - -
30/06:11pm 24.9 SE 6 10 1016.0 - 0.0 - Partly cloudy - - - - -
30/06:00pm 24.9 SE 6 8 1015.9 S 0.0 - Partly cloudy - - - - -
30/05:41pm 24.9 SE 6 9 1015.9 - 0.0 - Partly cloudy - - - - -
30/05:37pm 24.9 SE 6 9 1015.8 - 0.0 - Partly cloudy - - - - -
30/05:30pm 25.0 SE 6 10 1015.8 - 0.0 - Partly cloudy - - - - -
30/05:00pm 25.4 SE 7 10 1015.7 - 0.0 - - - - - - -
30/04:30pm 25.7 SE 8 12 1015.6 - 0.0 - - - - - - -
30/04:00pm 26.0 SE 7 11 1015.3 - 0.0 - Partly cloudy - - - - -
30/03:30pm 26.5 SSE 8 13 1015.2 - 0.0 - Cloudy - - - - -
30/03:00pm 25.8 SSE 8 15 1015.1 F 0.0 - Cloudy - - - - -
30/02:30pm 26.2 SSE 8 13 1015.1 - 0.0 - Partly cloudy - - - - -
30/02:00pm 26.0 SSE 10 14 1015.4 - 0.0 - Partly cloudy - - - - -
30/01:30pm 26.2 SSE 9 13 1015.6 - 0.0 - Partly cloudy - - - - -
30/01:20pm 26.5 SSE 9 13 1015.7 - 0.0 - Partly cloudy - - - - -
30/01:00pm 26.3 SSE 9 13 1016.0 - 0.0 - Partly cloudy - - - - -
30/12:30pm 26.0 SSE 10 14 1016.4 - 0.0 - Partly cloudy - - - - -
30/12:21pm 26.2 SSE 9 14 1016.6 - 0.0 - Partly cloudy - - - - -
30/12:00pm 25.6 SSE 9 13 1016.9 F 0.0 - Cloudy - - - - -
30/11:30am 25.5 SSE 11 15 1017.3 - 0.0 - Partly cloudy - - - - -
30/11:00am 26.5 SSE 9 16 1017.7 - 0.0 - Partly cloudy - - - - -
30/10:30am 26.4 SSE 9 15 1018.1 - 0.0 - Partly cloudy - - - - -
30/10:00am 26.2 SSE 10 15 1018.4 - 0.0 - Partly cloudy - - - - -
30/09:30am 25.8 SSE 10 15 1018.5 - 0.0 - Partly cloudy - - - - -
30/09:00am 25.7 S 8 13 1018.3 F 0.0 - Mostly clear - - - - -
30/08:30am 24.9 S 9 14 1018.1 - 0.0 - Partly cloudy - - - - -
30/08:00am 24.3 S 9 13 1017.9 - 0.0 - Partly cloudy - - - - -
30/07:30am 23.6 S 9 13 1017.9 - 0.0 - - - - - - -
30/07:00am 23.2 S 8 12 1017.8 - 0.0 - Partly cloudy - - - - -
30/06:43am 23.3 S 8 12 1017.6 - 0.0 - Partly cloudy - - - - -
30/06:30am 23.3 S 9 13 1017.4 - 0.0 - Partly cloudy - - - - -
30/06:00am 23.1 S 7 10 1017.0 R 0.0 - Cloudy - - - - -
30/05:30am 23.4 S 7 11 1016.9 - 0.0 - Partly cloudy - - - - -
30/05:00am 23.4 S 7 11 1016.6 - 0.0 - Partly cloudy - - - - -
30/04:30am 23.7 S 7 10 1016.4 - 0.0 - Partly cloudy - - - - -
30/04:00am 23.7 S 7 10 1016.5 - 0.0 - Cloudy - - - - -
30/03:30am 23.9 SSE 9 14 1016.3 - 0.0 - Partly cloudy - - - - -
30/03:00am 24.4 SSE 9 14 1016.4 - 0.0 - Cloudy - - - - -
30/02:30am 24.3 SSE 8 12 1016.8 - 0.0 - Partly cloudy - - - - -
30/02:08am 24.3 SSE 7 11 1016.9 - 0.0 - Partly cloudy - - - - -
30/02:00am 24.3 SSE 7 11 1017.0 - 0.0 - Partly cloudy - - - - -
30/01:55am 24.3 SSE 8 12 1017.1 - 0.0 - Partly cloudy - - - - -
30/01:30am 24.3 SSE 8 12 1017.2 - 0.0 - Partly cloudy - - - - -
30/01:00am 24.4 SSE 8 15 1017.5 - 0.0 - Partly cloudy - - - - -
30/12:48am 24.4 SSE 7 11 1017.5 - 0.0 - Partly cloudy - - - - -
30/12:30am 24.3 SE 8 12 1017.7 - 0.0 - Partly cloudy - - - - -
30/12:00am 24.4 SE 7 10 1018.1 - 0.0 - Partly cloudy - - - - -
 
Date/Time
EST
Temp

°C
Wind Pressure Rain
since 9am
mm
Weather Cloud Vis
km
Sea
Height
m
Swell
Dir
 
Speed
knots
Gust
knots
hPa Trend Height
m
Period
s
Dir
29/11:30pm 24.4 SE 7 13 1018.3 - 0.0 - Partly cloudy - - - - -
29/11:00pm 24.6 SE 7 11 1018.4 - 0.0 - Partly cloudy - - - - -
29/10:30pm 24.4 SSE 6 10 1018.6 - 0.0 - Partly cloudy - - - - -
29/10:00pm 24.5 SSE 7 11 1018.6 - 0.0 - Partly cloudy - - - - -
29/09:30pm 24.6 SE 7 11 1018.6 - 0.0 - Partly cloudy - - - - -
29/09:00pm 24.5 SSE 6 10 1018.4 R 0.0 - Mostly clear - - - - -
29/08:30pm 24.5 SSE 6 7 1018.5 - 0.0 - Partly cloudy - - - - -
29/08:00pm 24.6 SE 6 10 1018.2 - 0.0 - Partly cloudy - - - - -
29/07:30pm 24.7 SSE 7 11 1017.7 - 0.0 - Partly cloudy - - - - -
29/07:00pm 24.6 SE 7 12 1017.3 - 0.0 - Partly cloudy - - - - -
29/06:30pm 24.6 SE 8 12 1017.0 - 0.0 - Partly cloudy - - - - -
29/06:00pm 24.7 SE 8 13 1016.6 R 0.0 - Mostly clear - - - - -
29/05:30pm 24.7 SSE 8 13 1016.2 - 0.0 - Partly cloudy - - - - -
29/05:00pm 25.1 SSE 9 15 1015.9 - 0.0 - - - - - - -
29/04:30pm 25.5 SSE 9 15 1015.6 - 0.0 - - - - - - -
29/04:00pm 25.9 SSE 8 14 1015.4 - 0.0 - Mostly clear 10 - - - -
29/03:30pm 26.2 SSE 9 15 1015.5 - 0.0 - Mostly clear 10 - - - -
29/03:00pm 26.5 SSE 10 14 1015.6 R 0.0 - Mostly clear 10 - - - -
29/02:30pm 26.2 SSE 11 16 1015.6 - 0.0 - Mostly clear 10 - - - -
29/02:00pm 26.2 SSE 11 17 1015.6 - 0.0 - Partly cloudy 10 - - - -
29/01:30pm 26.7 SSE 10 16 1015.9 - 0.0 - - - - - - -
29/01:00pm 26.3 SSE 12 17 1016.2 - 0.0 - Partly cloudy - - - - -
29/12:30pm 26.6 SSE 11 17 1016.6 - 0.0 - Partly cloudy - - - - -
29/12:00pm 26.2 SSE 11 17 1016.9 F 0.0 - - - - - - -
29/11:38am 26.1 SSE 13 17 1017.2 - 0.0 - Partly cloudy - - - - -
29/11:30am 26.2 SSE 11 16 1017.5 - 0.0 - Partly cloudy - - - - -
29/11:18am 25.9 SSE 12 17 1017.8 - 0.0 - Partly cloudy - - - - -
29/11:00am 26.2 SSE 10 16 1018.0 - 0.0 - Partly cloudy - - - - -
29/10:48am 25.8 SSE 11 17 1018.1 - 0.0 - Partly cloudy - - - - -
29/10:30am 25.1 SSE 12 17 1018.4 - 0.0 - Partly cloudy - - - - -
29/10:29am 25.0 SSE 12 17 1018.4 - 0.0 - Partly cloudy - - - - -
29/10:07am 25.7 SSE 10 15 1018.7 - 0.0 - Partly cloudy - - - - -
29/10:00am 25.5 SSE 12 18 1018.7 - 0.0 - Partly cloudy - - - - -
29/09:49am 25.3 SSE 11 17 1018.7 - 0.0 - Partly cloudy - - - - -
29/09:39am 25.0 SSE 11 16 1018.7 - 0.0 - Partly cloudy - - - - -
29/09:30am 24.2 SSE 12 19 1018.7 - 0.0 - Partly cloudy - - - - -
29/09:00am 24.2 S 10 15 1018.8 F - - Cloudy 10 - - - -
29/08:30am 24.1 SSE 9 14 1018.5 - - - Partly cloudy 10 - - - -
29/08:00am 23.0 S 7 11 1018.5 - 2.0 - Partly cloudy 10 - - - -
29/07:30am 23.1 S 8 12 1018.4 - - - Partly cloudy - - - - -
29/07:04am 23.4 S 7 12 1018.1 - - - Partly cloudy - - - - -
29/07:00am 23.4 S 8 12 1018.0 - - - Partly cloudy - - - - -
29/06:30am 23.6 SSE 10 14 1017.7 - - - Partly cloudy - - - - -
29/06:28am 23.6 SSE 10 15 1017.6 - - - Partly cloudy - - - - -
29/06:00am 23.9 SSE 10 16 1017.3 F - - Cloudy - - - - -
29/05:54am 24.0 SE 9 16 1017.2 - - - Partly cloudy - - - - -
29/05:53am 24.0 SE 9 16 1017.1 - - - Partly cloudy - - - - -
29/05:40am 24.0 SE 8 13 1017.0 - - - Partly cloudy - - - - -
29/05:30am 23.8 SE 8 13 1016.8 - - - Partly cloudy - - - - -

Other Formats:

Comma delimited format used in spreadsheet applications
http://www.bom.gov.au/fwo/IDQ60701/IDQ60701.94367.axf

JavaScript Object Notation format (JSON) in row-major order
http://www.bom.gov.au/fwo/IDQ60701/IDQ60701.94367.json